Time;durP1;ratioP1;P1;durP2;ratioP2;P2;SDS_P1;SDS_P2;PMS_P1;PMS_P2;Temp;Humidity;BMP_temperature;BMP_pressure;BME280_temperature;BME280_humidity;BME280_pressure;Samples;Min_cycle;Max_cycle;Signal;HPM_P1;HPM_P2
2023/11/04 00:01:18;;;;;;;1.30;0.90;;;;;;;11.22;59.58;96844.38;233811;214;149471;-56
2023/11/04 00:06:26;;;;;;;1.70;0.80;;;;;;;11.15;59.55;96855.89;234193;216;138813;-57
2023/11/04 00:11:30;;;;;;;1.50;0.70;;;;;;;11.10;59.25;96866.17;234221;214;137559;-54
2023/11/04 00:16:33;;;;;;;1.60;0.90;;;;;;;11.07;59.01;96858.65;234249;215;149279;-56
2023/11/04 00:21:41;;;;;;;0.70;0.50;;;;;;;11.05;59.00;96862.53;234348;214;139701;-64
2023/11/04 00:26:45;;;;;;;2.80;0.70;;;;;;;11.02;58.79;96875.05;234188;216;137320;-57
2023/11/04 00:31:48;;;;;;;2.40;0.60;;;;;;;10.98;58.61;96884.65;234138;215;150160;-58
2023/11/04 00:36:51;;;;;;;1.40;0.70;;;;;;;10.93;58.55;96888.69;234239;216;139440;-56
2023/11/04 00:41:55;;;;;;;1.10;0.70;;;;;;;10.92;58.48;96894.46;234301;216;138223;-58
2023/11/04 00:46:59;;;;;;;0.90;0.50;;;;;;;10.91;58.27;96899.81;234183;214;149924;-56
2023/11/04 00:52:04;;;;;;;3.00;0.60;;;;;;;10.87;58.09;96905.77;234319;215;140555;-57
2023/11/04 00:57:07;;;;;;;0.80;0.40;;;;;;;10.82;57.93;96901.14;234110;216;137939;-56
2023/11/04 01:02:10;;;;;;;1.50;0.40;;;;;;;10.79;57.75;96897.16;234213;216;151219;-55
2023/11/04 01:07:13;;;;;;;1.50;0.40;;;;;;;10.79;57.60;96896.09;234176;214;138900;-56
2023/11/04 01:12:17;;;;;;;0.50;0.30;;;;;;;10.79;57.51;96906.10;234206;217;140720;-57
2023/11/04 01:17:20;;;;;;;0.70;0.30;;;;;;;10.82;57.54;96912.85;234214;216;150010;-57
2023/11/04 01:22:23;;;;;;;0.30;0.30;;;;;;;10.87;57.36;96912.35;234148;214;138844;-57
2023/11/04 01:27:27;;;;;;;0.30;0.30;;;;;;;10.91;57.31;96911.31;234368;216;138197;-57
2023/11/04 01:32:30;;;;;;;0.40;0.30;;;;;;;10.91;57.17;96917.70;233903;216;150248;-57
2023/11/04 01:37:33;;;;;;;0.40;0.20;;;;;;;10.92;57.21;96919.54;234175;216;139640;-55
2023/11/04 01:42:44;;;;;;;0.70;0.30;;;;;;;10.91;57.17;96924.56;234155;216;137795;-58
2023/11/04 01:47:48;;;;;;;0.70;0.40;;;;;;;10.88;57.23;96925.56;234176;209;151148;-58
2023/11/04 01:52:51;;;;;;;0.80;0.30;;;;;;;10.85;57.20;96931.88;234275;215;139772;-57
2023/11/04 01:57:55;;;;;;;1.00;0.20;;;;;;;10.83;57.21;96938.48;234343;215;138001;-58
2023/11/04 02:02:58;;;;;;;1.40;0.40;;;;;;;10.83;57.28;96947.65;234209;216;149518;-59
2023/11/04 02:08:01;;;;;;;1.70;0.50;;;;;;;10.85;57.19;96949.27;234104;215;139991;-60
2023/11/04 02:13:05;;;;;;;0.60;0.30;;;;;;;10.86;57.16;96955.00;234112;216;137203;-57
2023/11/04 02:18:09;;;;;;;0.60;0.30;;;;;;;10.90;57.03;96956.58;234242;216;149242;-58
2023/11/04 02:23:13;;;;;;;1.30;0.40;;;;;;;10.93;56.90;96955.95;234140;215;138932;-57
2023/11/04 02:28:17;;;;;;;0.60;0.40;;;;;;;10.95;56.79;96961.63;234056;213;137805;-57
2023/11/04 02:33:20;;;;;;;0.30;0.30;;;;;;;10.97;56.68;96981.73;234368;216;150721;-58
2023/11/04 02:38:23;;;;;;;4.20;0.40;;;;;;;10.98;56.52;96990.95;234145;216;139316;-58
2023/11/04 02:43:27;;;;;;;0.60;0.40;;;;;;;10.98;56.36;96994.87;234230;216;138262;-58
2023/11/04 02:48:30;;;;;;;0.80;0.40;;;;;;;10.93;56.29;96999.81;234164;216;149900;-58
2023/11/04 02:53:34;;;;;;;0.80;0.40;;;;;;;10.91;56.30;97009.36;234197;215;138955;-58
2023/11/04 02:58:37;;;;;;;0.60;0.30;;;;;;;10.91;56.28;97005.90;234242;214;138592;-58
2023/11/04 03:03:40;;;;;;;0.80;0.40;;;;;;;10.89;56.12;97006.20;234263;216;149948;-56
2023/11/04 03:08:43;;;;;;;1.10;0.40;;;;;;;10.92;56.01;97014.48;234172;214;139187;-59
2023/11/04 03:13:47;;;;;;;0.60;0.40;;;;;;;10.90;55.78;97020.80;234199;216;137886;-57
2023/11/04 03:18:50;;;;;;;0.60;0.40;;;;;;;10.94;55.64;97032.02;234229;217;149120;-58
2023/11/04 03:23:54;;;;;;;0.60;0.40;;;;;;;10.90;55.67;97025.09;234212;216;138704;-56
2023/11/04 03:28:56;;;;;;;0.70;0.50;;;;;;;10.87;55.74;97038.54;234195;216;137885;-55
2023/11/04 03:34:00;;;;;;;0.70;0.30;;;;;;;10.80;55.81;97056.98;234236;217;149201;-58
2023/11/04 03:39:03;;;;;;;1.30;0.40;;;;;;;10.76;56.02;97067.45;234125;216;138738;-58
2023/11/04 03:44:07;;;;;;;445.10;324.30;;;;;;;10.78;56.59;97073.05;234148;214;138847;-60
2023/11/04 03:49:10;;;;;;;16.00;10.10;;;;;;;10.84;56.54;97085.40;234203;209;150159;-59
2023/11/04 03:54:13;;;;;;;148.60;117.30;;;;;;;10.89;56.48;97091.25;234150;216;139670;-57
2023/11/04 03:59:17;;;;;;;32.60;22.60;;;;;;;10.94;56.63;97101.03;234286;216;138894;-59
2023/11/04 04:04:20;;;;;;;3.30;1.80;;;;;;;10.95;56.66;97107.45;234181;216;150323;-58
2023/11/04 04:09:23;;;;;;;3.80;0.80;;;;;;;10.93;56.32;97105.73;234234;214;139566;-58
2023/11/04 04:14:26;;;;;;;0.80;0.70;;;;;;;10.84;56.04;97104.96;234254;216;137336;-57
2023/11/04 04:19:29;;;;;;;0.70;0.50;;;;;;;10.83;55.96;97108.27;234252;216;149254;-58
2023/11/04 04:24:33;;;;;;;1.00;0.60;;;;;;;10.81;55.94;97108.77;234249;215;138867;-58
2023/11/04 04:29:36;;;;;;;1.50;0.60;;;;;;;10.82;55.97;97114.06;234248;213;138185;-57
2023/11/04 04:34:39;;;;;;;1.80;0.60;;;;;;;10.79;55.95;97112.76;234208;214;149402;-58
2023/11/04 04:39:43;;;;;;;33.50;24.30;;;;;;;10.82;56.21;97122.58;234255;216;139843;-58
2023/11/04 04:44:46;;;;;;;6.80;2.50;;;;;;;10.91;55.96;97122.97;234072;216;139648;-58
2023/11/04 04:49:49;;;;;;;1.90;1.00;;;;;;;10.88;55.81;97122.19;234248;216;150188;-58
2023/11/04 04:54:52;;;;;;;2.80;0.70;;;;;;;10.88;55.71;97125.30;234191;215;139569;-57
2023/11/04 04:59:56;;;;;;;1.90;0.90;;;;;;;10.91;55.74;97134.80;234152;215;140504;-57
2023/11/04 05:04:59;;;;;;;0.40;0.30;;;;;;;10.93;55.74;97143.70;234298;215;150656;-58
2023/11/04 05:10:03;;;;;;;1.60;0.40;;;;;;;10.92;55.53;97150.50;234310;209;139647;-58
2023/11/04 05:15:07;;;;;;;0.50;0.30;;;;;;;10.90;55.67;97151.78;234229;216;137961;-56
2023/11/04 05:20:11;;;;;;;1.60;0.60;;;;;;;10.92;55.90;97153.58;234223;216;149853;-58
2023/11/04 05:25:14;;;;;;;2.80;0.50;;;;;;;10.95;55.76;97157.67;234220;216;138666;-58
2023/11/04 05:30:18;;;;;;;2.20;0.60;;;;;;;10.95;55.65;97163.54;234223;216;138420;-58
2023/11/04 05:35:21;;;;;;;1.20;0.60;;;;;;;10.96;55.49;97164.37;234146;216;149396;-58
2023/11/04 05:40:24;;;;;;;1.40;0.60;;;;;;;10.95;55.44;97166.42;234213;216;140032;-58
2023/11/04 05:45:28;;;;;;;1.40;0.70;;;;;;;10.94;55.46;97167.71;234310;216;137908;-57
2023/11/04 05:50:32;;;;;;;1.20;0.80;;;;;;;10.93;55.57;97175.77;234256;216;149620;-56
2023/11/04 05:55:36;;;;;;;0.60;0.60;;;;;;;10.94;55.43;97177.85;234102;216;139485;-54
2023/11/04 06:00:42;;;;;;;0.90;0.40;;;;;;;10.96;55.58;97183.34;234220;216;136937;-58
2023/11/04 06:05:47;;;;;;;3.00;0.60;;;;;;;10.96;55.60;97186.55;234191;216;149225;-57
2023/11/04 06:10:50;;;;;;;1.00;0.70;;;;;;;11.00;55.48;97190.41;234183;214;139658;-55
2023/11/04 06:15:53;;;;;;;1.20;0.70;;;;;;;11.07;55.45;97190.96;234398;216;137006;-58
2023/11/04 06:20:56;;;;;;;1.70;0.90;;;;;;;11.14;55.23;97190.15;234161;216;150595;-56
2023/11/04 06:25:59;;;;;;;2.50;0.80;;;;;;;11.22;55.01;97183.23;234225;216;141136;-58
2023/11/04 06:31:10;;;;;;;1.20;0.60;;;;;;;11.28;54.70;97176.02;234160;216;138428;-58
2023/11/04 06:36:13;;;;;;;2.50;0.80;;;;;;;11.35;54.49;97185.52;234220;215;150365;-57
2023/11/04 06:41:17;;;;;;;3.40;0.90;;;;;;;11.40;54.46;97185.39;234144;209;139335;-58
2023/11/04 06:46:20;;;;;;;2.10;0.70;;;;;;;11.44;54.20;97189.23;234236;216;137484;-57
2023/11/04 06:51:23;;;;;;;2.20;0.90;;;;;;;11.46;54.05;97187.71;234417;216;149072;-56
2023/11/04 06:56:31;;;;;;;4.30;1.00;;;;;;;11.45;54.10;97191.18;234110;215;139367;-57
2023/11/04 07:01:34;;;;;;;1.40;0.70;;;;;;;11.41;54.18;97188.54;234220;216;138299;-59
2023/11/04 07:06:37;;;;;;;1.10;0.70;;;;;;;11.39;54.22;97192.46;234098;216;151393;-58
2023/11/04 07:11:43;;;;;;;20.50;12.80;;;;;;;11.41;54.25;97183.77;234106;216;138978;-57
2023/11/04 07:16:46;;;;;;;;;;;;;;;11.46;54.41;97179.21;234156;216;138211;-57
2023/11/04 07:21:50;;;;;;;1.90;1.20;;;;;;;11.48;54.31;97180.94;234275;216;149354;-57
2023/11/04 07:26:55;;;;;;;2.50;1.20;;;;;;;11.54;54.52;97190.21;234113;216;139786;-56
2023/11/04 07:31:58;;;;;;;3.90;0.90;;;;;;;11.61;54.13;97190.11;234146;216;138016;-56
2023/11/04 07:37:02;;;;;;;2.20;0.80;;;;;;;11.66;54.21;97187.16;234167;216;150239;-58
2023/11/04 07:42:07;;;;;;;1.80;0.80;;;;;;;11.72;53.97;97191.70;234184;216;138824;-57
2023/11/04 07:47:11;;;;;;;1.90;0.90;;;;;;;11.82;53.63;97187.94;234023;217;137681;-55
2023/11/04 07:52:14;;;;;;;2.50;0.90;;;;;;;11.91;53.31;97182.31;234336;216;149974;-55
2023/11/04 07:57:17;;;;;;;2.00;0.90;;;;;;;12.01;52.90;97190.77;234137;216;140185;-55
2023/11/04 08:02:20;;;;;;;1.30;0.80;;;;;;;12.06;52.47;97197.73;234182;216;138245;-57
2023/11/04 08:07:24;;;;;;;3.10;0.80;;;;;;;12.07;52.41;97203.14;234098;214;149387;-56
2023/11/04 08:12:27;;;;;;;2.00;0.80;;;;;;;12.12;52.51;97204.60;234176;216;139847;-58
2023/11/04 08:17:32;;;;;;;1.50;0.80;;;;;;;12.15;52.30;97202.86;234126;216;137505;-57
2023/11/04 08:22:39;;;;;;;3.70;0.70;;;;;;;12.21;52.28;97211.02;234142;216;150094;-57
2023/11/04 08:27:42;;;;;;;1.10;0.70;;;;;;;12.28;51.82;97208.73;234300;216;139153;-57
2023/11/04 08:32:46;;;;;;;3.00;0.90;;;;;;;12.32;51.70;97206.50;234198;216;139094;-54
2023/11/04 08:37:50;;;;;;;2.10;1.00;;;;;;;12.34;51.47;97210.06;234246;216;150233;-58
2023/11/04 08:42:53;;;;;;;0.90;0.70;;;;;;;12.40;51.47;97205.55;234182;216;138824;-58
2023/11/04 08:47:57;;;;;;;2.50;0.90;;;;;;;12.44;51.26;97198.95;234148;216;138307;-57
2023/11/04 08:53:01;;;;;;;2.10;0.90;;;;;;;12.50;50.86;97193.34;234056;216;151130;-56
2023/11/04 08:58:04;;;;;;;1.90;1.20;;;;;;;12.53;50.63;97192.01;234327;216;138944;-58
2023/11/04 09:03:08;;;;;;;3.70;1.10;;;;;;;12.56;51.19;97189.73;234273;216;137196;-57
2023/11/04 09:08:11;;;;;;;2.80;1.10;;;;;;;12.61;50.75;97182.86;234179;216;149796;-56
2023/11/04 09:13:15;;;;;;;1.50;1.00;;;;;;;12.61;50.21;97181.26;234239;216;140444;-56
2023/11/04 09:18:18;;;;;;;2.90;1.00;;;;;;;12.61;50.30;97176.15;234199;216;137993;-57
2023/11/04 09:23:22;;;;;;;3.50;0.90;;;;;;;12.63;50.29;97182.34;234127;216;150747;-56
2023/11/04 09:28:25;;;;;;;4.60;1.20;;;;;;;12.64;50.02;97180.59;234145;216;140301;-56
2023/11/04 09:33:30;;;;;;;2.40;1.00;;;;;;;12.68;50.09;97177.89;234319;214;137931;-58
2023/11/04 09:38:34;;;;;;;2.70;1.20;;;;;;;12.70;50.03;97182.86;234173;216;149423;-57
2023/11/04 09:43:39;;;;;;;6.00;1.10;;;;;;;12.75;50.30;97177.85;234235;209;139069;-58
2023/11/04 09:48:42;;;;;;;3.00;1.20;;;;;;;12.77;50.22;97180.29;234184;216;137559;-56
2023/11/04 09:53:56;;;;;;;1.50;0.70;;;;;;;12.79;50.15;97179.27;234257;216;149157;-57
2023/11/04 09:58:59;;;;;;;2.80;1.00;;;;;;;12.79;49.72;97168.05;234103;209;139838;-56
2023/11/04 10:04:03;;;;;;;2.50;1.10;;;;;;;12.78;49.59;97154.38;234354;216;138852;-58
2023/11/04 10:09:07;;;;;;;4.00;1.10;;;;;;;12.76;49.46;97151.19;234161;216;151608;-56
2023/11/04 10:14:10;;;;;;;2.30;1.10;;;;;;;12.75;49.35;97154.16;234106;214;138793;-56
2023/11/04 10:19:14;;;;;;;3.00;1.20;;;;;;;12.73;49.41;97151.75;234213;216;138413;-60
2023/11/04 10:24:17;;;;;;;1.30;0.80;;;;;;;12.78;49.54;97147.27;234252;216;149722;-55
2023/11/04 10:29:21;;;;;;;2.00;1.00;;;;;;;12.84;49.28;97137.69;234120;216;138910;-57
2023/11/04 10:34:31;;;;;;;2.40;1.30;;;;;;;12.96;49.34;97128.06;234180;216;138148;-57
2023/11/04 10:39:35;;;;;;;2.70;1.20;;;;;;;13.07;49.45;97121.58;234287;214;149721;-55
2023/11/04 10:44:47;;;;;;;4.90;1.00;;;;;;;13.14;48.76;97120.88;234104;216;140023;-57
2023/11/04 10:50:02;;;;;;;2.30;1.10;;;;;;;13.17;48.41;97117.67;234209;216;137962;-57
2023/11/04 10:55:13;;;;;;;4.70;1.40;;;;;;;13.17;48.10;97123.09;234230;216;149256;-56
2023/11/04 11:00:23;;;;;;;3.10;1.40;;;;;;;13.21;48.31;97126.52;234130;216;140099;-56
2023/11/04 11:05:28;;;;;;;2.90;1.20;;;;;;;13.35;48.16;97114.98;234222;216;138992;-57
2023/11/04 11:10:40;;;;;;;3.20;1.00;;;;;;;13.59;47.94;97110.48;234095;216;149178;-57
2023/11/04 11:15:44;;;;;;;5.80;1.00;;;;;;;13.88;47.69;97100.60;234326;216;139011;-56
2023/11/04 11:20:47;;;;;;;2.60;1.40;;;;;;;14.17;47.43;97089.13;234209;216;138518;-57
2023/11/04 11:26:02;;;;;;;2.90;1.00;;;;;;;14.52;47.60;97084.30;234255;215;149013;-57
2023/11/04 11:31:11;;;;;;;1.90;1.20;;;;;;;14.89;46.16;97073.02;234198;214;139797;-56
2023/11/04 11:36:16;;;;;;;3.90;1.30;;;;;;;15.17;45.29;97062.40;234120;217;138475;-58
2023/11/04 11:41:19;;;;;;;5.20;1.20;;;;;;;15.39;44.97;97060.30;234158;216;150500;-57
2023/11/04 11:46:22;;;;;;;2.20;1.00;;;;;;;15.65;44.49;97053.23;234000;216;138997;-57
2023/11/04 11:51:27;;;;;;;4.00;1.50;;;;;;;15.93;43.64;97043.36;234411;216;138553;-57
2023/11/04 11:56:32;;;;;;;2.10;1.40;;;;;;;16.05;42.84;97038.38;234216;216;149589;-57
2023/11/04 12:01:35;;;;;;;6.10;1.00;;;;;;;15.95;42.86;97028.71;234105;217;140131;-57
2023/11/04 12:06:40;;;;;;;1.90;1.00;;;;;;;15.79;43.38;97022.65;234232;217;137009;-56
2023/11/04 12:11:43;;;;;;;3.50;1.20;;;;;;;15.77;44.09;97020.35;234228;216;149845;-57
2023/11/04 12:16:47;;;;;;;2.50;1.50;;;;;;;15.76;43.62;97012.45;234076;216;139149;-57
2023/11/04 12:21:51;;;;;;;4.20;1.40;;;;;;;15.69;43.55;97007.52;234294;216;137486;-56
2023/11/04 12:26:54;;;;;;;2.90;1.30;;;;;;;15.61;43.17;97005.59;234223;216;149137;-57
2023/11/04 12:31:57;;;;;;;3.20;1.20;;;;;;;15.39;42.81;96997.39;234204;216;138987;-58
2023/11/04 12:37:01;;;;;;;2.50;1.10;;;;;;;15.29;43.17;97000.98;234175;216;138031;-57
2023/11/04 12:42:04;;;;;;;5.80;1.20;;;;;;;15.21;43.30;96993.33;234264;216;149615;-54
2023/11/04 12:47:08;;;;;;;2.50;1.30;;;;;;;15.05;43.45;96991.98;234189;216;138782;-58
2023/11/04 12:52:11;;;;;;;3.00;1.30;;;;;;;14.96;43.59;96997.14;234376;215;137668;-55
2023/11/04 12:57:15;;;;;;;2.50;1.20;;;;;;;14.93;43.23;97002.77;234175;216;149603;-56
2023/11/04 13:02:20;;;;;;;3.70;1.50;;;;;;;14.96;43.14;97005.02;234263;216;139867;-57
2023/11/04 13:07:24;;;;;;;4.60;1.40;;;;;;;14.96;43.74;97003.60;234127;216;137454;-56
2023/11/04 13:12:27;;;;;;;3.60;1.20;;;;;;;15.00;43.60;96993.68;234166;216;149751;-55
2023/11/04 13:17:30;;;;;;;2.40;0.90;;;;;;;14.94;43.30;97000.20;234102;216;139395;-56
2023/11/04 13:22:33;;;;;;;2.20;1.20;;;;;;;14.81;43.19;97007.20;234218;216;137338;-57
2023/11/04 13:27:37;;;;;;;2.30;1.10;;;;;;;14.83;42.92;97004.65;234346;216;149304;-56
2023/11/04 13:32:41;;;;;;;4.70;1.40;;;;;;;14.80;43.32;97005.83;234157;216;139259;-55
2023/11/04 13:37:44;;;;;;;4.40;1.40;;;;;;;14.72;43.02;96995.04;234194;216;138237;-56
2023/11/04 13:42:48;;;;;;;3.30;1.40;;;;;;;14.69;43.19;96990.73;234177;216;150655;-57
2023/11/04 13:47:51;;;;;;;5.70;1.80;;;;;;;14.58;43.89;96986.55;234186;216;138986;-55
2023/11/04 13:52:54;;;;;;;4.50;1.80;;;;;;;14.52;44.61;96980.49;234140;216;137342;-55
2023/11/04 13:57:57;;;;;;;5.50;1.90;;;;;;;14.44;44.95;96978.08;234315;216;149199;-52
2023/11/04 14:03:01;;;;;;;4.30;1.90;;;;;;;14.37;45.54;96977.29;234058;216;138635;-53
2023/11/04 14:08:05;;;;;;;4.20;1.80;;;;;;;14.22;45.85;96980.80;234162;216;138386;-55
2023/11/04 14:13:08;;;;;;;3.00;1.60;;;;;;;14.12;45.87;96978.72;234168;216;149431;-56
2023/11/04 14:18:11;;;;;;;4.30;1.90;;;;;;;14.06;46.56;96968.05;234146;215;138657;-57
2023/11/04 14:23:14;;;;;;;6.30;1.70;;;;;;;13.99;46.66;96968.30;234224;215;138693;-57
2023/11/04 14:28:18;;;;;;;3.10;1.70;;;;;;;13.91;47.25;96962.27;234317;216;149304;-55
2023/11/04 14:33:21;;;;;;;4.00;1.60;;;;;;;13.81;47.77;96964.45;234261;216;139806;-55
2023/11/04 14:38:24;;;;;;;7.20;1.60;;;;;;;13.65;48.14;96967.44;234176;216;139585;-56
2023/11/04 14:43:28;;;;;;;2.90;1.70;;;;;;;13.56;49.25;96965.55;234229;216;149283;-55
2023/11/04 14:48:31;;;;;;;3.30;1.40;;;;;;;13.48;49.67;96967.91;234083;209;139002;-55
2023/11/04 14:53:34;;;;;;;6.90;1.70;;;;;;;13.40;50.16;96967.80;234202;216;140535;-56
2023/11/04 14:58:38;;;;;;;4.50;1.90;;;;;;;13.31;50.39;96971.69;234220;216;150361;-56
2023/11/04 15:03:41;;;;;;;6.10;1.90;;;;;;;13.21;50.65;96971.60;234321;216;140320;-56
2023/11/04 15:08:45;;;;;;;3.10;1.60;;;;;;;13.13;51.45;96961.27;234185;217;138020;-57
2023/11/04 15:13:50;;;;;;;5.40;1.80;;;;;;;13.05;52.08;96959.80;234161;216;150625;-57
2023/11/04 15:18:53;;;;;;;5.00;1.80;;;;;;;12.95;52.45;96949.84;234089;213;138919;-57
2023/11/04 15:23:56;;;;;;;5.60;2.10;;;;;;;12.84;52.40;96946.88;234235;215;137968;-57
2023/11/04 15:28:59;;;;;;;7.40;2.30;;;;;;;12.78;52.68;96942.83;234118;215;149364;-56
2023/11/04 15:34:03;;;;;;;6.20;2.40;;;;;;;12.73;53.11;96955.33;234077;216;138707;-56
2023/11/04 15:39:07;;;;;;;6.30;2.10;;;;;;;12.64;53.86;96955.02;234052;214;138294;-57
2023/11/04 15:44:10;;;;;;;6.10;2.30;;;;;;;12.54;53.96;96944.13;234026;213;150882;-57
2023/11/04 15:49:13;;;;;;;6.10;3.00;;;;;;;12.45;54.32;96943.11;234095;209;139647;-57
2023/11/04 15:54:17;;;;;;;10.40;4.00;;;;;;;12.36;54.62;96940.66;234064;213;137486;-57
2023/11/04 15:59:20;;;;;;;10.90;4.30;;;;;;;12.25;54.78;96935.08;234090;208;150138;-56
2023/11/04 16:04:24;;;;;;;10.50;4.30;;;;;;;12.14;55.36;96932.06;233990;209;139213;-58
2023/11/04 16:09:28;;;;;;;14.10;5.30;;;;;;;12.03;55.41;96927.98;234172;213;138142;-58
2023/11/04 16:14:31;;;;;;;18.00;6.20;;;;;;;11.92;55.58;96919.69;234050;209;149142;-57
2023/11/04 16:19:35;;;;;;;69.30;46.80;;;;;;;11.83;55.70;96918.66;234059;214;139446;-58
2023/11/04 16:24:38;;;;;;;16.40;9.40;;;;;;;11.80;56.31;96901.54;234043;214;138547;-58
2023/11/04 16:29:42;;;;;;;14.90;7.30;;;;;;;11.69;56.22;96899.06;233906;213;149250;-58
2023/11/04 16:34:45;;;;;;;21.30;8.50;;;;;;;11.61;56.45;96898.52;234086;213;138717;-58
2023/11/04 16:39:48;;;;;;;17.40;8.40;;;;;;;11.52;56.63;96892.40;234289;209;138435;-57
2023/11/04 16:44:52;;;;;;;18.40;7.80;;;;;;;11.43;56.98;96880.24;234049;215;149536;-58
2023/11/04 16:49:55;;;;;;;16.70;7.80;;;;;;;11.32;57.53;96872.27;234041;215;139171;-59
2023/11/04 16:54:58;;;;;;;18.00;8.90;;;;;;;11.25;58.07;96870.13;234091;209;137322;-58
2023/11/04 17:00:06;;;;;;;15.30;8.50;;;;;;;11.20;58.55;96862.52;234022;209;150970;-57
2023/11/04 17:05:10;;;;;;;17.20;8.50;;;;;;;11.13;58.82;96866.14;233994;213;139274;-58
2023/11/04 17:10:14;;;;;;;17.90;8.60;;;;;;;11.07;58.93;96862.68;234295;216;138494;-57
2023/11/04 17:15:17;;;;;;;14.90;8.90;;;;;;;10.98;59.09;96864.66;234112;214;149048;-57
2023/11/04 17:20:20;;;;;;;25.20;10.30;;;;;;;10.88;59.26;96855.36;234082;216;139863;-58
2023/11/04 17:25:23;;;;;;;24.90;9.40;;;;;;;10.75;59.77;96853.48;234062;209;137627;-58
2023/11/04 17:30:26;;;;;;;288.50;224.30;;;;;;;10.79;60.69;96847.16;234095;214;149360;-58
2023/11/04 17:35:30;;;;;;;27.20;14.20;;;;;;;10.90;60.74;96850.17;234035;214;139857;-57
2023/11/04 17:40:33;;;;;;;19.30;10.40;;;;;;;10.82;60.30;96842.98;234075;213;138766;-58
2023/11/04 17:45:36;;;;;;;21.70;10.70;;;;;;;10.73;60.40;96826.15;234135;209;150049;-57
2023/11/04 17:50:39;;;;;;;17.40;9.90;;;;;;;10.65;60.86;96819.48;234101;214;140065;-58
2023/11/04 17:55:46;;;;;;;19.80;10.90;;;;;;;10.55;61.05;96814.05;234113;209;137899;-57
2023/11/04 18:00:50;;;;;;;144.50;109.90;;;;;;;10.45;61.44;96806.23;234075;214;149973;-57
2023/11/04 18:05:53;;;;;;;35.10;20.30;;;;;;;10.45;62.12;96797.80;234057;210;138704;-58
2023/11/04 18:10:58;;;;;;;22.20;11.40;;;;;;;10.41;61.67;96789.36;234170;213;138200;-56
2023/11/04 18:16:02;;;;;;;25.50;12.50;;;;;;;10.31;61.79;96783.02;234296;214;149615;-57
2023/11/04 18:21:05;;;;;;;22.90;10.90;;;;;;;10.20;62.17;96775.39;234121;212;139664;-56
2023/11/04 18:26:09;;;;;;;24.30;11.90;;;;;;;10.13;62.57;96771.27;234061;214;139082;-57
2023/11/04 18:31:13;;;;;;;26.90;13.80;;;;;;;10.08;62.87;96769.88;234091;214;149450;-57
2023/11/04 18:36:16;;;;;;;24.40;13.50;;;;;;;10.02;62.89;96770.27;234079;209;138877;-58
2023/11/04 18:41:19;;;;;;;94.80;65.60;;;;;;;10.00;63.58;96770.80;234134;214;138420;-58
2023/11/04 18:46:23;;;;;;;28.10;15.50;;;;;;;10.11;64.37;96767.05;234163;214;150252;-56
2023/11/04 18:51:26;;;;;;;24.50;13.80;;;;;;;10.12;63.15;96766.13;234213;214;141318;-57
2023/11/04 18:56:29;;;;;;;24.60;14.00;;;;;;;10.00;63.14;96767.80;234173;214;138871;-57
2023/11/04 19:01:32;;;;;;;21.50;13.00;;;;;;;9.88;63.32;96761.13;234041;214;149374;-58
2023/11/04 19:06:37;;;;;;;26.40;13.50;;;;;;;9.77;63.59;96760.61;234179;214;139178;-50
2023/11/04 19:11:40;;;;;;;301.40;234.30;;;;;;;9.76;64.27;96769.09;234280;216;138040;-59
2023/11/04 19:16:44;;;;;;;33.10;19.00;;;;;;;9.81;64.21;96768.17;234222;209;149177;-58
2023/11/04 19:21:47;;;;;;;27.10;15.20;;;;;;;9.72;63.75;96769.09;234284;215;139809;-58
2023/11/04 19:26:51;;;;;;;22.70;13.80;;;;;;;9.61;64.04;96776.84;234158;216;138103;-57
2023/11/04 19:31:54;;;;;;;24.00;13.40;;;;;;;9.54;64.36;96789.39;234098;216;149005;-56
2023/11/04 19:36:57;;;;;;;27.40;14.40;;;;;;;9.48;64.48;96779.78;234105;214;140379;-58
2023/11/04 19:42:01;;;;;;;25.10;14.80;;;;;;;9.51;64.51;96774.10;233683;214;138603;-57
2023/11/04 19:47:04;;;;;;;28.10;15.00;;;;;;;9.51;64.45;96774.05;234147;214;149073;-58
2023/11/04 19:52:07;;;;;;;25.50;14.80;;;;;;;9.49;64.55;96762.56;234229;211;140099;-57
2023/11/04 19:57:10;;;;;;;29.30;15.00;;;;;;;9.44;64.60;96746.90;233865;214;137443;-59
2023/11/04 20:02:15;;;;;;;28.60;15.30;;;;;;;9.39;64.64;96733.28;234166;215;149775;-59
2023/11/04 20:07:18;;;;;;;26.20;15.30;;;;;;;9.31;64.86;96733.61;234146;215;139994;-58
2023/11/04 20:12:22;;;;;;;29.40;16.10;;;;;;;9.22;64.91;96730.98;234152;215;139008;-56
2023/11/04 20:17:25;;;;;;;30.50;16.90;;;;;;;9.08;65.02;96733.34;234160;213;152569;-59
2023/11/04 20:22:29;;;;;;;118.10;85.60;;;;;;;9.09;65.92;96720.18;234152;217;139830;-58
2023/11/04 20:27:34;;;;;;;29.20;16.20;;;;;;;9.12;65.76;96713.83;234296;216;138627;-56
2023/11/04 20:32:37;;;;;;;29.50;15.50;;;;;;;9.01;65.50;96717.55;234171;216;149906;-57
2023/11/04 20:37:41;;;;;;;27.60;15.20;;;;;;;8.92;65.50;96712.20;234163;216;139048;-57
2023/11/04 20:42:44;;;;;;;27.10;15.30;;;;;;;8.84;65.57;96709.70;234185;216;137448;-58
2023/11/04 20:47:47;;;;;;;27.50;15.00;;;;;;;8.73;65.54;96708.23;234337;216;149554;-58
2023/11/04 20:52:51;;;;;;;26.70;15.10;;;;;;;8.59;65.61;96712.76;234087;216;139381;-58
2023/11/04 20:57:54;;;;;;;26.70;15.70;;;;;;;8.43;65.74;96707.12;234363;217;137162;-59
2023/11/04 21:02:57;;;;;;;25.00;15.00;;;;;;;8.36;66.11;96697.11;234199;216;149628;-57
2023/11/04 21:08:01;;;;;;;24.10;15.20;;;;;;;8.38;66.27;96687.64;234202;216;140345;-58
2023/11/04 21:13:04;;;;;;;32.40;18.50;;;;;;;8.44;66.42;96679.26;234232;216;137787;-57
2023/11/04 21:18:08;;;;;;;26.90;16.70;;;;;;;8.52;66.11;96656.27;234175;216;149170;-58
2023/11/04 21:23:11;;;;;;;28.80;17.10;;;;;;;8.49;66.03;96648.61;234115;214;138758;-56
2023/11/04 21:28:14;;;;;;;33.10;16.70;;;;;;;8.46;66.01;96647.12;234421;216;138019;-57
2023/11/04 21:33:19;;;;;;;29.90;17.30;;;;;;;8.43;65.96;96646.69;234130;216;149945;-56
2023/11/04 21:38:23;;;;;;;29.30;17.60;;;;;;;8.29;66.06;96635.71;234116;216;139386;-57
2023/11/04 21:43:26;;;;;;;30.60;17.90;;;;;;;8.24;66.03;96631.75;234193;216;138342;-58
2023/11/04 21:48:29;;;;;;;29.10;16.60;;;;;;;8.18;66.18;96628.80;234226;216;149089;-58
2023/11/04 21:53:34;;;;;;;32.10;16.60;;;;;;;8.09;66.11;96621.71;234095;216;139917;-57
2023/11/04 21:58:37;;;;;;;30.40;17.20;;;;;;;8.00;66.25;96629.96;234244;214;137788;-57
2023/11/04 22:03:44;;;;;;;30.50;17.20;;;;;;;7.90;66.38;96634.50;234337;214;149077;-56
2023/11/04 22:08:48;;;;;;;32.30;18.00;;;;;;;7.77;66.61;96628.77;234290;216;138671;-58
2023/11/04 22:13:51;;;;;;;31.40;17.70;;;;;;;7.67;66.99;96640.26;234300;216;138171;-58
2023/11/04 22:18:54;;;;;;;34.10;18.00;;;;;;;7.64;67.35;96635.64;234281;216;152843;-57
2023/11/04 22:23:58;;;;;;;31.60;17.20;;;;;;;7.71;67.56;96646.60;234215;216;138853;-58
2023/11/04 22:29:01;;;;;;;27.80;17.10;;;;;;;7.81;67.42;96649.94;234195;216;138457;-59
2023/11/04 22:34:06;;;;;;;30.80;17.60;;;;;;;7.89;67.10;96654.04;234389;216;149387;-59
2023/11/04 22:39:11;;;;;;;29.90;17.80;;;;;;;7.89;66.93;96662.20;234201;216;138821;-58
2023/11/04 22:44:15;;;;;;;28.70;17.70;;;;;;;7.88;66.89;96648.63;234228;216;137954;-59
2023/11/04 22:49:18;;;;;;;29.60;17.50;;;;;;;7.81;66.73;96643.61;234163;213;149869;-58
2023/11/04 22:54:21;;;;;;;31.90;18.20;;;;;;;7.78;66.90;96633.25;234168;216;138864;-58
2023/11/04 22:59:25;;;;;;;29.30;18.30;;;;;;;7.76;66.46;96625.02;234199;216;138189;-57
2023/11/04 23:04:28;;;;;;;39.80;20.70;;;;;;;7.70;66.45;96607.17;234211;216;150028;-57
2023/11/04 23:09:32;;;;;;;42.40;21.90;;;;;;;7.61;66.03;96599.86;234318;214;138723;-58
2023/11/04 23:14:35;;;;;;;36.20;20.20;;;;;;;7.54;65.83;96600.86;234227;216;137582;-58
2023/11/04 23:19:39;;;;;;;34.90;21.00;;;;;;;7.47;65.80;96592.66;234157;216;149439;-58
2023/11/04 23:24:43;;;;;;;31.40;20.20;;;;;;;7.42;66.01;96592.58;234123;216;140531;-59